createdAt,value
2019-01-06T00:01:38.375Z,103248.90
2019-01-06T00:06:50.397Z,103252.11
2019-01-06T00:10:13.211Z,103256.34
2019-01-06T00:15:25.565Z,103254.74
2019-01-06T00:18:36.096Z,103250.36
2019-01-06T00:22:03.964Z,103251.87
2019-01-06T00:27:18.360Z,103248.50
2019-01-06T00:30:46.116Z,103254.11
2019-01-06T00:33:54.816Z,103252.81
2019-01-06T00:37:03.543Z,103252.56
2019-01-06T00:40:12.652Z,103254.67
2019-01-06T00:43:24.350Z,103262.32
2019-01-06T00:46:36.982Z,103269.97
2019-01-06T00:49:44.566Z,103263.99
2019-01-06T00:53:00.237Z,103268.41
2019-01-06T00:58:17.115Z,103269.46
2019-01-06T01:01:25.833Z,103267.76
2019-01-06T01:04:37.483Z,103271.03
2019-01-06T01:07:46.272Z,103272.69
2019-01-06T01:10:59.944Z,103271.99
2019-01-06T01:14:09.516Z,103276.66
2019-01-06T01:17:19.258Z,103278.31
2019-01-06T01:21:29.338Z,103278.93
2019-01-06T01:26:48.303Z,103277.20
2019-01-06T01:29:54.082Z,103284.17
2019-01-06T01:33:05.737Z,103289.98
2019-01-06T01:36:15.182Z,103297.10
2019-01-06T01:39:29.920Z,103300.17
2019-01-06T01:42:38.601Z,103299.19
2019-01-06T01:45:47.469Z,103300.17
2019-01-06T01:48:56.302Z,103304.27
2019-01-06T01:52:04.856Z,103301.76
2019-01-06T01:55:13.712Z,103302.05
2019-01-06T01:58:22.374Z,103294.64
2019-01-06T02:02:34.058Z,103297.98
2019-01-06T02:05:41.648Z,103288.81
2019-01-06T02:09:49.170Z,103287.74
2019-01-06T02:12:57.709Z,103289.31
2019-01-06T02:17:05.275Z,103292.50
2019-01-06T02:20:17.052Z,103293.85
2019-01-06T02:23:28.783Z,103293.69
2019-01-06T02:26:39.602Z,103293.82
2019-01-06T02:29:52.198Z,103286.87
2019-01-06T02:32:59.840Z,103292.96
2019-01-06T02:36:08.664Z,103292.39
2019-01-06T02:39:16.371Z,103298.83
2019-01-06T02:42:28.119Z,103291.60
2019-01-06T02:45:35.753Z,103295.93
2019-01-06T02:50:47.420Z,103296.06
2019-01-06T02:53:55.990Z,103291.27
2019-01-06T02:57:07.747Z,103284.51
2019-01-06T03:00:19.190Z,103285.01
2019-01-06T03:03:27.131Z,103284.67
2019-01-06T03:06:38.617Z,103283.85
2019-01-06T03:09:47.336Z,103281.81
2019-01-06T03:12:58.930Z,103283.23
2019-01-06T03:16:07.995Z,103281.33
2019-01-06T03:19:29.695Z,103280.54
2019-01-06T03:22:54.497Z,103270.08
2019-01-06T03:26:05.988Z,103267.55
2019-01-06T03:29:14.620Z,103265.28
2019-01-06T03:32:24.254Z,103264.81
2019-01-06T03:35:39.808Z,103257.96
2019-01-06T03:38:48.631Z,103255.22
2019-01-06T03:41:57.401Z,103246.27
2019-01-06T03:45:05.001Z,103252.69
2019-01-06T03:50:19.585Z,103247.91
2019-01-06T03:53:43.220Z,103252.25
2019-01-06T03:56:52.086Z,103258.68
2019-01-06T04:00:59.575Z,103259.62
2019-01-06T04:04:11.242Z,103266.42
2019-01-06T04:07:20.234Z,103269.34
2019-01-06T04:10:29.025Z,103267.07
2019-01-06T04:13:40.593Z,103258.51
2019-01-06T04:16:50.198Z,103259.35
2019-01-06T04:20:03.024Z,103259.30
2019-01-06T04:23:18.864Z,103255.41
2019-01-06T04:26:28.657Z,103260.47
2019-01-06T04:29:56.303Z,103264.81
2019-01-06T04:33:04.702Z,103260.05
2019-01-06T04:36:19.496Z,103259.79
2019-01-06T04:39:30.043Z,103262.73
2019-01-06T04:42:54.886Z,103259.54
2019-01-06T04:46:29.876Z,103255.98
2019-01-06T04:49:37.574Z,103258.08
2019-01-06T04:52:45.326Z,103258.92
2019-01-06T04:55:54.252Z,103259.38
2019-01-06T04:59:03.939Z,103257.82
2019-01-06T05:04:16.438Z,103256.21
2019-01-06T05:07:25.167Z,103257.54
2019-01-06T05:12:37.398Z,103260.29
2019-01-06T05:15:48.288Z,103257.86
2019-01-06T05:18:57.047Z,103255.00
2019-01-06T05:22:18.779Z,103256.63
2019-01-06T05:25:29.565Z,103257.95
2019-01-06T05:28:39.621Z,103258.36
2019-01-06T05:32:22.023Z,103270.25
2019-01-06T05:35:30.925Z,103268.58
2019-01-06T05:38:39.901Z,103274.61
2019-01-06T05:41:53.691Z,103269.59
2019-01-06T05:45:02.374Z,103273.63
2019-01-06T05:48:11.930Z,103276.53
2019-01-06T05:51:20.457Z,103270.10
2019-01-06T05:55:28.822Z,103270.79
2019-01-06T05:59:08.252Z,103268.05
2019-01-06T06:02:35.266Z,103271.02
2019-01-06T06:06:14.509Z,103272.31
2019-01-06T06:09:30.059Z,103270.03
2019-01-06T06:12:40.536Z,103266.92
2019-01-06T06:15:49.300Z,103268.53
2019-01-06T06:18:57.785Z,103267.09
2019-01-06T06:22:06.588Z,103272.02
2019-01-06T06:25:15.266Z,103269.20
2019-01-06T06:28:24.058Z,103276.36
2019-01-06T06:33:38.183Z,103272.14
2019-01-06T06:37:49.525Z,103275.80
2019-01-06T06:41:00.144Z,103283.15
2019-01-06T06:44:08.833Z,103291.46
2019-01-06T06:47:17.333Z,103289.78
2019-01-06T06:50:26.143Z,103302.20
2019-01-06T06:53:36.796Z,103308.65
2019-01-06T06:56:50.592Z,103307.54
2019-01-06T07:00:09.947Z,103308.29
2019-01-06T07:04:29.999Z,103309.17
2019-01-06T07:07:37.715Z,103313.43
2019-01-06T07:10:46.360Z,103315.58
2019-01-06T07:13:56.867Z,103320.53
2019-01-06T07:17:16.581Z,103322.24
2019-01-06T07:20:25.537Z,103328.06
2019-01-06T07:25:42.812Z,103336.07
2019-01-06T07:28:51.679Z,103339.32
2019-01-06T07:32:02.353Z,103336.01
2019-01-06T07:36:12.363Z,103349.60
2019-01-06T07:39:26.113Z,103348.33
2019-01-06T07:43:38.569Z,103354.18
2019-01-06T07:46:48.246Z,103353.38
2019-01-06T07:49:59.744Z,103348.80
2019-01-06T07:53:08.791Z,103359.64
2019-01-06T07:56:20.578Z,103365.61
2019-01-06T07:59:35.193Z,103370.24
2019-01-06T08:02:55.948Z,103371.17
2019-01-06T08:07:08.747Z,103369.11
2019-01-06T08:10:20.433Z,103375.31
2019-01-06T08:14:28.065Z,103386.32
2019-01-06T08:17:36.920Z,103394.83
2019-01-06T08:20:45.830Z,103398.11
2019-01-06T08:23:53.392Z,103399.46
2019-01-06T08:27:06.994Z,103401.32
2019-01-06T08:31:20.019Z,103399.96
2019-01-06T08:34:28.931Z,103400.81
2019-01-06T08:37:38.803Z,103404.62
2019-01-06T08:41:19.761Z,103402.72
2019-01-06T08:44:31.375Z,103408.26
2019-01-06T08:47:40.172Z,103408.89
2019-01-06T08:50:49.893Z,103409.20
2019-01-06T08:53:58.748Z,103412.97
2019-01-06T08:59:14.487Z,103402.61
2019-01-06T09:02:23.246Z,103400.38
2019-01-06T09:05:34.802Z,103411.95
2019-01-06T09:09:45.766Z,103409.87
2019-01-06T09:12:55.963Z,103417.68
2019-01-06T09:16:10.551Z,103419.52
2019-01-06T09:20:18.217Z,103420.02
2019-01-06T09:23:31.075Z,103417.46
2019-01-06T09:26:54.753Z,103426.57
2019-01-06T09:32:09.146Z,103430.79
2019-01-06T09:36:17.993Z,103425.39
2019-01-06T09:39:27.586Z,103431.04
2019-01-06T09:42:37.300Z,103432.01
2019-01-06T09:46:55.112Z,103430.92
2019-01-06T09:50:03.019Z,103425.86
2019-01-06T09:54:20.845Z,103429.31
2019-01-06T09:58:02.093Z,103423.77
2019-01-06T10:01:12.228Z,103428.07
2019-01-06T10:04:20.000Z,103426.79
2019-01-06T10:09:35.559Z,103422.84
2019-01-06T10:12:44.507Z,103427.02
2019-01-06T10:16:56.666Z,103429.40
2019-01-06T10:20:08.252Z,103427.02
2019-01-06T10:23:18.811Z,103425.93
2019-01-06T10:26:29.386Z,103427.46
2019-01-06T10:29:38.214Z,103429.68
2019-01-06T10:32:46.981Z,103431.30
2019-01-06T10:36:57.605Z,103428.19
2019-01-06T10:40:40.748Z,103427.01
2019-01-06T10:43:49.740Z,103425.55
2019-01-06T10:47:15.479Z,103420.57
2019-01-06T10:50:24.327Z,103425.53
2019-01-06T10:53:42.091Z,103423.74
2019-01-06T10:58:59.263Z,103425.31
2019-01-06T11:02:14.764Z,103423.07
2019-01-06T11:07:39.599Z,103425.53
2019-01-06T11:10:57.245Z,103428.37
2019-01-06T11:14:19.070Z,103426.00
2019-01-06T11:17:34.657Z,103429.34
2019-01-06T11:20:47.527Z,103425.18
2019-01-06T11:24:04.880Z,103423.88
2019-01-06T11:27:23.224Z,103421.84
2019-01-06T11:30:39.905Z,103419.53
2019-01-06T11:36:03.178Z,103416.41
2019-01-06T11:39:23.259Z,103418.27
2019-01-06T11:42:38.135Z,103409.21
2019-01-06T11:46:55.303Z,103414.65
2019-01-06T11:50:15.843Z,103413.84
2019-01-06T11:53:29.440Z,103414.07
2019-01-06T11:56:40.117Z,103411.26
2019-01-06T12:00:12.591Z,103413.48
2019-01-06T12:03:33.110Z,103408.96
2019-01-06T12:11:15.756Z,103409.49
2019-01-06T12:14:24.324Z,103411.46
2019-01-06T12:17:33.257Z,103411.86
2019-01-06T12:22:46.414Z,103415.49
2019-01-06T12:25:55.297Z,103414.38
2019-01-06T12:29:09.072Z,103417.45
2019-01-06T12:32:28.449Z,103413.78
2019-01-06T12:36:37.420Z,103413.53
2019-01-06T12:40:53.576Z,103416.06
2019-01-06T12:46:07.149Z,103419.88
2019-01-06T12:49:49.176Z,103424.24
2019-01-06T12:52:57.982Z,103432.25
2019-01-06T12:58:10.974Z,103437.82
2019-01-06T13:01:19.701Z,103439.55
2019-01-06T13:05:27.738Z,103439.45
2019-01-06T13:08:36.568Z,103448.36
2019-01-06T13:12:00.200Z,103445.48
2019-01-06T13:17:12.135Z,103447.15
2019-01-06T13:21:19.128Z,103443.21
2019-01-06T13:25:27.648Z,103448.86
2019-01-06T13:28:53.597Z,103451.49
2019-01-06T13:32:03.877Z,103454.14
2019-01-06T13:35:16.791Z,103456.44
2019-01-06T13:38:28.523Z,103460.58
2019-01-06T13:41:39.166Z,103460.89
2019-01-06T13:44:48.134Z,103463.37
2019-01-06T13:47:57.285Z,103467.78
2019-01-06T13:51:14.847Z,103469.57
2019-01-06T13:56:26.865Z,103476.08
2019-01-06T13:59:53.907Z,103481.40
2019-01-06T14:03:10.621Z,103478.90
2019-01-06T14:08:25.295Z,103481.46
2019-01-06T14:11:41.933Z,103490.83
2019-01-06T14:15:49.856Z,103486.85
2019-01-06T14:22:36.991Z,103491.87
2019-01-06T14:25:46.123Z,103505.15
2019-01-06T14:30:59.083Z,103503.18
2019-01-06T14:36:12.237Z,103504.25
2019-01-06T14:39:21.845Z,103508.50
2019-01-06T14:42:30.770Z,103506.82
2019-01-06T14:47:47.025Z,103504.36
2019-01-06T14:55:11.531Z,103505.62
2019-01-06T14:59:18.083Z,103512.99
2019-01-06T15:02:43.974Z,103517.30
2019-01-06T15:05:52.724Z,103523.58
2019-01-06T15:09:59.225Z,103522.52
2019-01-06T15:13:10.057Z,103526.45
2019-01-06T15:16:17.702Z,103534.41
2019-01-06T15:19:57.972Z,103535.59
2019-01-06T15:23:10.906Z,103536.17
2019-01-06T15:26:24.672Z,103530.98
2019-01-06T15:29:34.464Z,103537.35
2019-01-06T15:34:50.740Z,103542.89
2019-01-06T15:37:58.439Z,103538.47
2019-01-06T15:42:05.148Z,103539.96
2019-01-06T15:48:30.173Z,103537.30
2019-01-06T15:51:41.345Z,103534.53
2019-01-06T15:54:56.929Z,103536.94
2019-01-06T15:58:24.432Z,103546.13
2019-01-06T16:02:38.328Z,103544.75
2019-01-06T16:05:50.800Z,103544.07
2019-01-06T16:09:05.214Z,103551.04
2019-01-06T16:14:17.376Z,103552.19
2019-01-06T16:17:25.939Z,103558.21
2019-01-06T16:20:36.142Z,103553.89
2019-01-06T16:23:46.804Z,103558.36
2019-01-06T16:26:56.693Z,103560.84
2019-01-06T16:30:10.738Z,103557.07
2019-01-06T16:33:31.853Z,103554.63
2019-01-06T16:38:47.213Z,103553.54
2019-01-06T16:42:02.546Z,103554.88
2019-01-06T16:45:11.084Z,103556.81
2019-01-06T16:48:40.656Z,103555.46
2019-01-06T16:51:50.400Z,103563.70
2019-01-06T16:55:00.280Z,103562.60
2019-01-06T16:58:08.068Z,103563.52
2019-01-06T17:01:16.806Z,103567.96
2019-01-06T17:06:33.064Z,103571.67
2019-01-06T17:10:43.823Z,103563.53
2019-01-06T17:13:53.124Z,103566.68
2019-01-06T17:17:00.760Z,103564.49
2019-01-06T17:20:10.068Z,103568.94
2019-01-06T17:23:18.674Z,103571.28
2019-01-06T17:26:31.421Z,103571.39
2019-01-06T17:29:41.027Z,103566.92
2019-01-06T17:32:49.486Z,103576.37
2019-01-06T17:36:16.576Z,103581.09
2019-01-06T17:41:33.283Z,103576.42
2019-01-06T17:44:43.687Z,103575.73
2019-01-06T17:47:51.217Z,103576.19
2019-01-06T17:51:17.912Z,103574.69
2019-01-06T17:54:26.553Z,103582.17
2019-01-06T17:57:35.427Z,103584.32
2019-01-06T18:00:49.962Z,103588.21
2019-01-06T18:04:02.477Z,103584.08
2019-01-06T18:07:26.394Z,103585.07
2019-01-06T18:10:35.126Z,103590.72
2019-01-06T18:15:51.865Z,103595.56
2019-01-06T18:18:59.465Z,103593.11
2019-01-06T18:22:16.013Z,103586.42
2019-01-06T18:25:28.381Z,103595.25
2019-01-06T18:28:36.750Z,103596.08
2019-01-06T18:32:47.780Z,103596.30
2019-01-06T18:35:56.572Z,103603.94
2019-01-06T18:39:05.402Z,103601.52
2019-01-06T18:42:15.278Z,103602.47
2019-01-06T18:46:22.944Z,103601.46
2019-01-06T18:50:29.624Z,103612.01
2019-01-06T18:53:43.292Z,103612.86
2019-01-06T18:58:57.374Z,103610.27
2019-01-06T19:02:06.960Z,103618.75
2019-01-06T19:05:15.695Z,103619.41
2019-01-06T19:09:24.414Z,103618.81
2019-01-06T19:13:38.134Z,103616.27
2019-01-06T19:18:51.789Z,103617.55
2019-01-06T19:22:16.513Z,103618.48
2019-01-06T19:25:26.122Z,103615.73
2019-01-06T19:28:34.574Z,103616.73
2019-01-06T19:32:43.979Z,103616.84
2019-01-06T19:36:12.708Z,103626.31
2019-01-06T19:39:25.092Z,103624.17
2019-01-06T19:42:34.664Z,103630.29
2019-01-06T19:45:43.189Z,103630.53
2019-01-06T19:48:50.912Z,103630.08
2019-01-06T19:51:59.531Z,103631.81
2019-01-06T19:56:09.386Z,103633.83
2019-01-06T19:59:19.040Z,103629.50
2019-01-06T20:02:28.001Z,103633.91
2019-01-06T20:05:40.733Z,103633.86
2019-01-06T20:08:50.613Z,103636.67
2019-01-06T20:12:01.371Z,103639.93
2019-01-06T20:15:24.612Z,103638.27
2019-01-06T20:20:38.563Z,103637.68
2019-01-06T20:24:02.367Z,103638.68
2019-01-06T20:27:19.992Z,103642.08
2019-01-06T20:30:34.500Z,103642.16
2019-01-06T20:34:46.553Z,103642.24
2019-01-06T20:37:54.319Z,103645.02
2019-01-06T20:41:18.040Z,103649.69
2019-01-06T20:44:30.691Z,103643.83
2019-01-06T20:48:43.112Z,103646.93
2019-01-06T20:51:56.554Z,103646.93
2019-01-06T20:55:05.286Z,103646.61
2019-01-06T20:58:15.963Z,103643.62
2019-01-06T21:01:23.649Z,103641.54
2019-01-06T21:06:35.640Z,103648.56
2019-01-06T21:09:51.268Z,103642.89
2019-01-06T21:12:59.722Z,103644.39
2019-01-06T21:18:16.542Z,103645.87
2019-01-06T21:21:25.061Z,103647.78
2019-01-06T21:24:35.575Z,103648.85
2019-01-06T21:27:44.400Z,103651.09
2019-01-06T21:31:54.175Z,103650.43
2019-01-06T21:36:03.147Z,103660.90
2019-01-06T21:39:18.233Z,103666.22
2019-01-06T21:43:26.083Z,103664.24
2019-01-06T21:46:34.934Z,103667.76
2019-01-06T21:49:49.706Z,103667.45
2019-01-06T21:55:04.617Z,103670.80
2019-01-06T21:58:16.403Z,103664.34
2019-01-06T22:01:26.974Z,103664.34
2019-01-06T22:06:38.838Z,103661.04
2019-01-06T22:09:47.567Z,103656.13
2019-01-06T22:12:56.408Z,103648.18
2019-01-06T22:17:05.732Z,103645.52
2019-01-06T22:20:14.193Z,103649.00
2019-01-06T22:23:52.988Z,103644.96
2019-01-06T22:27:01.579Z,103641.13
2019-01-06T22:30:10.992Z,103642.95
2019-01-06T22:33:19.928Z,103640.64
2019-01-06T22:36:29.427Z,103644.04
2019-01-06T22:40:38.266Z,103645.84
2019-01-06T22:43:46.955Z,103647.65
2019-01-06T22:46:55.491Z,103651.98
2019-01-06T22:52:07.131Z,103644.42
2019-01-06T22:55:15.699Z,103647.42
2019-01-06T22:58:27.121Z,103644.58
2019-01-06T23:02:37.924Z,103648.12
2019-01-06T23:06:50.812Z,103641.15
2019-01-06T23:10:02.192Z,103640.30
2019-01-06T23:15:16.632Z,103634.12
2019-01-06T23:18:30.439Z,103637.61
2019-01-06T23:21:38.988Z,103641.17
2019-01-06T23:24:48.062Z,103645.63
2019-01-06T23:27:58.762Z,103646.77
2019-01-06T23:31:06.455Z,103649.15
2019-01-06T23:34:15.064Z,103653.01
2019-01-06T23:37:24.625Z,103659.29
2019-01-06T23:41:32.802Z,103654.32
2019-01-06T23:44:45.386Z,103657.59
2019-01-06T23:48:02.062Z,103653.69
2019-01-06T23:52:14.836Z,103657.15
2019-01-06T23:55:23.678Z,103660.04
2019-01-06T23:58:31.315Z,103657.99
